sensor_id;sensor_type;location;lat;lon;timestamp;P1;durP1;ratioP1;P2;durP2;ratioP2
3217;SDS011;1621;49.702;8.618;2023-04-06T00:01:13;7.20;;;4.27;;
3217;SDS011;1621;49.702;8.618;2023-04-06T00:03:39;6.60;;;4.17;;
3217;SDS011;1621;49.702;8.618;2023-04-06T00:06:05;8.03;;;4.30;;
3217;SDS011;1621;49.702;8.618;2023-04-06T00:08:32;10.23;;;5.80;;
3217;SDS011;1621;49.702;8.618;2023-04-06T00:10:58;5.40;;;3.90;;
3217;SDS011;1621;49.702;8.618;2023-04-06T00:13:24;5.67;;;4.00;;
3217;SDS011;1621;49.702;8.618;2023-04-06T00:15:50;5.83;;;3.63;;
3217;SDS011;1621;49.702;8.618;2023-04-06T00:18:18;11.03;;;4.30;;
3217;SDS011;1621;49.702;8.618;2023-04-06T00:20:45;5.50;;;3.97;;
3217;SDS011;1621;49.702;8.618;2023-04-06T00:23:11;6.20;;;4.10;;
3217;SDS011;1621;49.702;8.618;2023-04-06T00:25:37;8.33;;;3.57;;
3217;SDS011;1621;49.702;8.618;2023-04-06T00:28:03;5.00;;;3.63;;
3217;SDS011;1621;49.702;8.618;2023-04-06T00:30:30;8.63;;;4.20;;
3217;SDS011;1621;49.702;8.618;2023-04-06T00:32:56;6.70;;;4.80;;
3217;SDS011;1621;49.702;8.618;2023-04-06T00:35:23;9.73;;;4.43;;
3217;SDS011;1621;49.702;8.618;2023-04-06T00:37:50;6.57;;;4.40;;
3217;SDS011;1621;49.702;8.618;2023-04-06T00:40:16;6.27;;;4.53;;
3217;SDS011;1621;49.702;8.618;2023-04-06T00:42:42;8.30;;;5.20;;
3217;SDS011;1621;49.702;8.618;2023-04-06T00:45:09;5.40;;;4.20;;
3217;SDS011;1621;49.702;8.618;2023-04-06T00:47:35;4.90;;;4.33;;
3217;SDS011;1621;49.702;8.618;2023-04-06T00:50:02;4.43;;;3.53;;
3217;SDS011;1621;49.702;8.618;2023-04-06T00:52:29;4.90;;;4.07;;
3217;SDS011;1621;49.702;8.618;2023-04-06T00:54:56;5.00;;;3.90;;
3217;SDS011;1621;49.702;8.618;2023-04-06T00:57:22;7.67;;;4.13;;
3217;SDS011;1621;49.702;8.618;2023-04-06T00:59:49;6.07;;;4.43;;
3217;SDS011;1621;49.702;8.618;2023-04-06T01:02:15;8.20;;;4.17;;
3217;SDS011;1621;49.702;8.618;2023-04-06T01:04:41;5.70;;;4.20;;
3217;SDS011;1621;49.702;8.618;2023-04-06T01:07:08;5.37;;;4.37;;
3217;SDS011;1621;49.702;8.618;2023-04-06T01:09:35;5.67;;;4.53;;
3217;SDS011;1621;49.702;8.618;2023-04-06T01:12:02;5.60;;;4.47;;
3217;SDS011;1621;49.702;8.618;2023-04-06T01:14:28;4.83;;;4.00;;
3217;SDS011;1621;49.702;8.618;2023-04-06T01:16:58;8.50;;;4.70;;
3217;SDS011;1621;49.702;8.618;2023-04-06T01:19:25;6.47;;;5.03;;
3217;SDS011;1621;49.702;8.618;2023-04-06T01:21:51;6.20;;;4.70;;
3217;SDS011;1621;49.702;8.618;2023-04-06T01:24:19;5.90;;;4.80;;
3217;SDS011;1621;49.702;8.618;2023-04-06T01:26:46;6.03;;;5.20;;
3217;SDS011;1621;49.702;8.618;2023-04-06T01:29:12;5.80;;;4.33;;
3217;SDS011;1621;49.702;8.618;2023-04-06T01:31:38;6.70;;;5.10;;
3217;SDS011;1621;49.702;8.618;2023-04-06T01:34:05;5.30;;;4.30;;
3217;SDS011;1621;49.702;8.618;2023-04-06T01:36:31;5.40;;;4.67;;
3217;SDS011;1621;49.702;8.618;2023-04-06T01:38:58;5.43;;;4.20;;
3217;SDS011;1621;49.702;8.618;2023-04-06T01:41:26;5.10;;;4.37;;
3217;SDS011;1621;49.702;8.618;2023-04-06T01:43:52;4.77;;;4.10;;
3217;SDS011;1621;49.702;8.618;2023-04-06T01:46:19;6.57;;;4.43;;
3217;SDS011;1621;49.702;8.618;2023-04-06T01:48:45;5.90;;;3.83;;
3217;SDS011;1621;49.702;8.618;2023-04-06T01:51:12;5.07;;;4.10;;
3217;SDS011;1621;49.702;8.618;2023-04-06T01:53:38;5.50;;;4.30;;
3217;SDS011;1621;49.702;8.618;2023-04-06T01:56:04;5.60;;;4.63;;
3217;SDS011;1621;49.702;8.618;2023-04-06T01:58:32;10.20;;;4.70;;
3217;SDS011;1621;49.702;8.618;2023-04-06T02:00:59;6.67;;;4.87;;
3217;SDS011;1621;49.702;8.618;2023-04-06T02:03:25;11.40;;;4.43;;
3217;SDS011;1621;49.702;8.618;2023-04-06T02:05:52;5.33;;;4.30;;
3217;SDS011;1621;49.702;8.618;2023-04-06T02:08:18;5.83;;;4.23;;
3217;SDS011;1621;49.702;8.618;2023-04-06T02:10:44;6.97;;;4.80;;
3217;SDS011;1621;49.702;8.618;2023-04-06T02:13:10;5.20;;;4.53;;
3217;SDS011;1621;49.702;8.618;2023-04-06T02:15:38;5.30;;;4.80;;
3217;SDS011;1621;49.702;8.618;2023-04-06T02:18:04;6.77;;;5.20;;
3217;SDS011;1621;49.702;8.618;2023-04-06T02:20:31;6.70;;;4.70;;
3217;SDS011;1621;49.702;8.618;2023-04-06T02:22:58;6.37;;;4.90;;
3217;SDS011;1621;49.702;8.618;2023-04-06T02:25:24;6.17;;;5.03;;
3217;SDS011;1621;49.702;8.618;2023-04-06T02:27:51;5.90;;;5.30;;
3217;SDS011;1621;49.702;8.618;2023-04-06T02:30:17;6.30;;;4.70;;
3217;SDS011;1621;49.702;8.618;2023-04-06T02:32:45;7.40;;;5.10;;
3217;SDS011;1621;49.702;8.618;2023-04-06T02:35:11;5.50;;;4.73;;
3217;SDS011;1621;49.702;8.618;2023-04-06T02:37:38;5.80;;;4.83;;
3217;SDS011;1621;49.702;8.618;2023-04-06T02:40:04;5.10;;;4.30;;
3217;SDS011;1621;49.702;8.618;2023-04-06T02:42:31;7.17;;;4.97;;
3217;SDS011;1621;49.702;8.618;2023-04-06T02:44:57;7.50;;;5.00;;
3217;SDS011;1621;49.702;8.618;2023-04-06T02:47:24;6.07;;;5.03;;
3217;SDS011;1621;49.702;8.618;2023-04-06T02:49:51;7.60;;;4.87;;
3217;SDS011;1621;49.702;8.618;2023-04-06T02:52:17;7.80;;;5.03;;
3217;SDS011;1621;49.702;8.618;2023-04-06T02:54:44;6.20;;;4.93;;
3217;SDS011;1621;49.702;8.618;2023-04-06T02:57:10;6.77;;;5.13;;
3217;SDS011;1621;49.702;8.618;2023-04-06T02:59:36;6.33;;;4.90;;
3217;SDS011;1621;49.702;8.618;2023-04-06T03:02:03;10.90;;;5.50;;
3217;SDS011;1621;49.702;8.618;2023-04-06T03:04:29;5.53;;;4.57;;
3217;SDS011;1621;49.702;8.618;2023-04-06T03:06:57;6.33;;;5.13;;
3217;SDS011;1621;49.702;8.618;2023-04-06T03:09:23;6.77;;;5.20;;
3217;SDS011;1621;49.702;8.618;2023-04-06T03:11:49;6.17;;;5.00;;
3217;SDS011;1621;49.702;8.618;2023-04-06T03:14:15;6.20;;;4.80;;
3217;SDS011;1621;49.702;8.618;2023-04-06T03:16:46;7.80;;;5.30;;
3217;SDS011;1621;49.702;8.618;2023-04-06T03:19:12;5.70;;;4.83;;
3217;SDS011;1621;49.702;8.618;2023-04-06T03:21:39;7.87;;;5.70;;
3217;SDS011;1621;49.702;8.618;2023-04-06T03:24:07;6.47;;;4.90;;
3217;SDS011;1621;49.702;8.618;2023-04-06T03:26:33;7.07;;;5.43;;
3217;SDS011;1621;49.702;8.618;2023-04-06T03:29:00;7.27;;;5.93;;
3217;SDS011;1621;49.702;8.618;2023-04-06T03:31:26;7.90;;;5.80;;
3217;SDS011;1621;49.702;8.618;2023-04-06T03:33:52;8.80;;;6.87;;
3217;SDS011;1621;49.702;8.618;2023-04-06T03:36:19;9.20;;;5.33;;
3217;SDS011;1621;49.702;8.618;2023-04-06T03:38:45;6.97;;;5.27;;
3217;SDS011;1621;49.702;8.618;2023-04-06T03:41:12;6.30;;;5.20;;
3217;SDS011;1621;49.702;8.618;2023-04-06T03:43:39;6.33;;;5.70;;
3217;SDS011;1621;49.702;8.618;2023-04-06T03:46:05;8.23;;;5.70;;
3217;SDS011;1621;49.702;8.618;2023-04-06T03:48:31;8.40;;;6.73;;
3217;SDS011;1621;49.702;8.618;2023-04-06T03:50:57;9.43;;;6.43;;
3217;SDS011;1621;49.702;8.618;2023-04-06T03:53:24;8.00;;;6.53;;
3217;SDS011;1621;49.702;8.618;2023-04-06T03:55:50;6.90;;;5.90;;
3217;SDS011;1621;49.702;8.618;2023-04-06T03:58:18;10.50;;;6.97;;
3217;SDS011;1621;49.702;8.618;2023-04-06T04:00:44;6.50;;;5.80;;
3217;SDS011;1621;49.702;8.618;2023-04-06T04:03:10;7.50;;;6.40;;
3217;SDS011;1621;49.702;8.618;2023-04-06T04:05:37;9.83;;;7.00;;
3217;SDS011;1621;49.702;8.618;2023-04-06T04:08:03;9.10;;;7.57;;
3217;SDS011;1621;49.702;8.618;2023-04-06T04:10:30;7.87;;;6.27;;
3217;SDS011;1621;49.702;8.618;2023-04-06T04:12:56;9.83;;;6.40;;
3217;SDS011;1621;49.702;8.618;2023-04-06T04:15:23;9.13;;;6.87;;
3217;SDS011;1621;49.702;8.618;2023-04-06T04:17:50;10.40;;;7.37;;
3217;SDS011;1621;49.702;8.618;2023-04-06T04:20:16;7.27;;;6.30;;
3217;SDS011;1621;49.702;8.618;2023-04-06T04:22:43;7.60;;;6.50;;
3217;SDS011;1621;49.702;8.618;2023-04-06T04:25:09;7.50;;;6.30;;
3217;SDS011;1621;49.702;8.618;2023-04-06T04:27:35;6.90;;;6.10;;
3217;SDS011;1621;49.702;8.618;2023-04-06T04:30:02;10.23;;;6.37;;
3217;SDS011;1621;49.702;8.618;2023-04-06T04:32:29;6.10;;;5.50;;
3217;SDS011;1621;49.702;8.618;2023-04-06T04:34:56;7.03;;;5.93;;
3217;SDS011;1621;49.702;8.618;2023-04-06T04:37:22;9.80;;;6.53;;
3217;SDS011;1621;49.702;8.618;2023-04-06T04:39:48;7.00;;;6.00;;
3217;SDS011;1621;49.702;8.618;2023-04-06T04:42:15;9.73;;;7.10;;
3217;SDS011;1621;49.702;8.618;2023-04-06T04:44:41;8.83;;;7.20;;
3217;SDS011;1621;49.702;8.618;2023-04-06T04:47:07;8.23;;;6.93;;
3217;SDS011;1621;49.702;8.618;2023-04-06T04:49:35;9.07;;;6.73;;
3217;SDS011;1621;49.702;8.618;2023-04-06T04:52:01;6.93;;;6.13;;
3217;SDS011;1621;49.702;8.618;2023-04-06T04:54:27;9.67;;;7.30;;
3217;SDS011;1621;49.702;8.618;2023-04-06T04:56:54;11.23;;;7.23;;
3217;SDS011;1621;49.702;8.618;2023-04-06T04:59:20;7.33;;;6.10;;
3217;SDS011;1621;49.702;8.618;2023-04-06T05:01:46;7.50;;;6.20;;
3217;SDS011;1621;49.702;8.618;2023-04-06T05:04:12;8.53;;;6.37;;
3217;SDS011;1621;49.702;8.618;2023-04-06T05:06:40;9.47;;;6.43;;
3217;SDS011;1621;49.702;8.618;2023-04-06T05:09:06;7.93;;;6.77;;
3217;SDS011;1621;49.702;8.618;2023-04-06T05:11:33;9.07;;;6.70;;
3217;SDS011;1621;49.702;8.618;2023-04-06T05:13:59;11.00;;;7.10;;
3217;SDS011;1621;49.702;8.618;2023-04-06T05:16:25;12.10;;;8.17;;
3217;SDS011;1621;49.702;8.618;2023-04-06T05:18:51;11.97;;;7.90;;
3217;SDS011;1621;49.702;8.618;2023-04-06T05:21:18;7.97;;;6.93;;
3217;SDS011;1621;49.702;8.618;2023-04-06T05:23:46;9.23;;;7.83;;
3217;SDS011;1621;49.702;8.618;2023-04-06T05:26:12;9.77;;;7.53;;
3217;SDS011;1621;49.702;8.618;2023-04-06T05:28:38;10.93;;;8.40;;
3217;SDS011;1621;49.702;8.618;2023-04-06T05:31:07;10.60;;;8.30;;
3217;SDS011;1621;49.702;8.618;2023-04-06T05:33:33;9.87;;;8.43;;
3217;SDS011;1621;49.702;8.618;2023-04-06T05:36:00;9.97;;;8.50;;
3217;SDS011;1621;49.702;8.618;2023-04-06T05:38:26;11.67;;;9.10;;
3217;SDS011;1621;49.702;8.618;2023-04-06T05:40:54;11.70;;;9.10;;
3217;SDS011;1621;49.702;8.618;2023-04-06T05:43:20;11.37;;;8.90;;
3217;SDS011;1621;49.702;8.618;2023-04-06T05:45:47;10.47;;;9.00;;
3217;SDS011;1621;49.702;8.618;2023-04-06T05:48:13;11.73;;;9.33;;
3217;SDS011;1621;49.702;8.618;2023-04-06T05:50:42;14.00;;;9.70;;
3217;SDS011;1621;49.702;8.618;2023-04-06T05:53:11;14.43;;;11.33;;
3217;SDS011;1621;49.702;8.618;2023-04-06T05:55:37;12.97;;;9.63;;
3217;SDS011;1621;49.702;8.618;2023-04-06T05:58:05;15.10;;;10.47;;
3217;SDS011;1621;49.702;8.618;2023-04-06T06:00:31;14.60;;;10.13;;
3217;SDS011;1621;49.702;8.618;2023-04-06T06:02:57;13.60;;;9.70;;
3217;SDS011;1621;49.702;8.618;2023-04-06T06:05:24;14.77;;;9.40;;
3217;SDS011;1621;49.702;8.618;2023-04-06T06:07:50;13.13;;;9.77;;
3217;SDS011;1621;49.702;8.618;2023-04-06T06:10:16;16.90;;;9.30;;
3217;SDS011;1621;49.702;8.618;2023-04-06T06:12:42;14.07;;;10.10;;
3217;SDS011;1621;49.702;8.618;2023-04-06T06:15:11;17.00;;;9.93;;
3217;SDS011;1621;49.702;8.618;2023-04-06T06:17:37;18.90;;;11.50;;
3217;SDS011;1621;49.702;8.618;2023-04-06T06:20:04;12.10;;;9.87;;
3217;SDS011;1621;49.702;8.618;2023-04-06T06:22:31;16.07;;;10.10;;
3217;SDS011;1621;49.702;8.618;2023-04-06T06:24:57;15.13;;;10.30;;
3217;SDS011;1621;49.702;8.618;2023-04-06T06:27:23;12.17;;;9.60;;
3217;SDS011;1621;49.702;8.618;2023-04-06T06:29:50;16.30;;;9.93;;
3217;SDS011;1621;49.702;8.618;2023-04-06T06:32:17;13.60;;;10.00;;
3217;SDS011;1621;49.702;8.618;2023-04-06T06:34:44;14.07;;;10.63;;
3217;SDS011;1621;49.702;8.618;2023-04-06T06:37:10;17.13;;;10.50;;
3217;SDS011;1621;49.702;8.618;2023-04-06T06:39:36;15.83;;;9.83;;
3217;SDS011;1621;49.702;8.618;2023-04-06T06:42:02;13.20;;;10.27;;
3217;SDS011;1621;49.702;8.618;2023-04-06T06:44:29;11.97;;;8.90;;
3217;SDS011;1621;49.702;8.618;2023-04-06T06:46:55;11.50;;;9.90;;
3217;SDS011;1621;49.702;8.618;2023-04-06T06:49:23;11.00;;;9.80;;
3217;SDS011;1621;49.702;8.618;2023-04-06T06:51:49;13.40;;;9.50;;
3217;SDS011;1621;49.702;8.618;2023-04-06T06:54:15;12.40;;;9.73;;
3217;SDS011;1621;49.702;8.618;2023-04-06T06:56:41;13.20;;;10.00;;
3217;SDS011;1621;49.702;8.618;2023-04-06T06:59:08;12.10;;;9.70;;
3217;SDS011;1621;49.702;8.618;2023-04-06T07:01:34;13.13;;;9.53;;
3217;SDS011;1621;49.702;8.618;2023-04-06T07:04:00;11.03;;;8.70;;
3217;SDS011;1621;49.702;8.618;2023-04-06T07:08:56;9.20;;;7.73;;
3217;SDS011;1621;49.702;8.618;2023-04-06T07:11:22;9.50;;;8.13;;
3217;SDS011;1621;49.702;8.618;2023-04-06T07:13:49;12.43;;;8.73;;
3217;SDS011;1621;49.702;8.618;2023-04-06T07:16:15;10.37;;;9.00;;
3217;SDS011;1621;49.702;8.618;2023-04-06T07:18:42;12.97;;;9.30;;
3217;SDS011;1621;49.702;8.618;2023-04-06T07:21:08;12.87;;;10.03;;
3217;SDS011;1621;49.702;8.618;2023-04-06T07:23:34;13.37;;;9.30;;
3217;SDS011;1621;49.702;8.618;2023-04-06T07:26:03;14.43;;;9.93;;
3217;SDS011;1621;49.702;8.618;2023-04-06T07:28:30;15.00;;;10.80;;
3217;SDS011;1621;49.702;8.618;2023-04-06T07:30:56;11.77;;;9.10;;
3217;SDS011;1621;49.702;8.618;2023-04-06T07:33:22;12.17;;;10.00;;
3217;SDS011;1621;49.702;8.618;2023-04-06T07:35:49;11.07;;;8.87;;
3217;SDS011;1621;49.702;8.618;2023-04-06T07:38:17;11.43;;;8.97;;
3217;SDS011;1621;49.702;8.618;2023-04-06T07:40:43;14.03;;;10.10;;
3217;SDS011;1621;49.702;8.618;2023-04-06T07:43:11;11.73;;;10.13;;
3217;SDS011;1621;49.702;8.618;2023-04-06T07:45:37;13.50;;;9.63;;
3217;SDS011;1621;49.702;8.618;2023-04-06T07:48:04;8.97;;;8.07;;
3217;SDS011;1621;49.702;8.618;2023-04-06T07:50:30;12.60;;;9.60;;
3217;SDS011;1621;49.702;8.618;2023-04-06T07:52:57;10.63;;;8.67;;
3217;SDS011;1621;49.702;8.618;2023-04-06T07:55:23;12.50;;;9.00;;
3217;SDS011;1621;49.702;8.618;2023-04-06T07:57:49;13.73;;;9.70;;
3217;SDS011;1621;49.702;8.618;2023-04-06T08:00:18;13.27;;;9.80;;
3217;SDS011;1621;49.702;8.618;2023-04-06T08:02:44;13.43;;;9.27;;
3217;SDS011;1621;49.702;8.618;2023-04-06T08:05:11;12.33;;;9.17;;
3217;SDS011;1621;49.702;8.618;2023-04-06T08:07:37;14.97;;;11.00;;
3217;SDS011;1621;49.702;8.618;2023-04-06T08:10:04;14.97;;;9.30;;
3217;SDS011;1621;49.702;8.618;2023-04-06T08:12:31;16.77;;;9.47;;
3217;SDS011;1621;49.702;8.618;2023-04-06T08:14:58;14.17;;;10.93;;
3217;SDS011;1621;49.702;8.618;2023-04-06T08:17:26;13.83;;;9.80;;
3217;SDS011;1621;49.702;8.618;2023-04-06T08:19:55;14.13;;;9.87;;
3217;SDS011;1621;49.702;8.618;2023-04-06T08:22:21;12.70;;;9.40;;
3217;SDS011;1621;49.702;8.618;2023-04-06T08:24:47;11.70;;;9.30;;
3217;SDS011;1621;49.702;8.618;2023-04-06T08:27:14;10.83;;;8.80;;
3217;SDS011;1621;49.702;8.618;2023-04-06T08:29:40;12.90;;;8.90;;
3217;SDS011;1621;49.702;8.618;2023-04-06T08:32:07;12.03;;;10.00;;
3217;SDS011;1621;49.702;8.618;2023-04-06T08:34:34;12.60;;;10.60;;
3217;SDS011;1621;49.702;8.618;2023-04-06T08:37:01;12.33;;;9.37;;
3217;SDS011;1621;49.702;8.618;2023-04-06T08:39:27;11.30;;;10.10;;
3217;SDS011;1621;49.702;8.618;2023-04-06T08:41:55;12.33;;;10.03;;
3217;SDS011;1621;49.702;8.618;2023-04-06T08:44:24;13.40;;;9.73;;
3217;SDS011;1621;49.702;8.618;2023-04-06T08:46:50;13.40;;;10.43;;
3217;SDS011;1621;49.702;8.618;2023-04-06T08:49:17;13.00;;;10.00;;
3217;SDS011;1621;49.702;8.618;2023-04-06T08:51:45;12.37;;;9.80;;
3217;SDS011;1621;49.702;8.618;2023-04-06T08:54:13;12.97;;;10.10;;
3217;SDS011;1621;49.702;8.618;2023-04-06T08:56:39;12.83;;;10.10;;
3217;SDS011;1621;49.702;8.618;2023-04-06T08:59:06;11.60;;;9.67;;
3217;SDS011;1621;49.702;8.618;2023-04-06T09:01:33;18.50;;;10.10;;
3217;SDS011;1621;49.702;8.618;2023-04-06T09:04:01;15.53;;;10.80;;
3217;SDS011;1621;49.702;8.618;2023-04-06T09:06:30;13.97;;;10.30;;
3217;SDS011;1621;49.702;8.618;2023-04-06T09:08:58;12.50;;;9.70;;
3217;SDS011;1621;49.702;8.618;2023-04-06T09:11:24;14.23;;;10.83;;
3217;SDS011;1621;49.702;8.618;2023-04-06T09:13:51;20.63;;;10.13;;
3217;SDS011;1621;49.702;8.618;2023-04-06T09:16:18;12.07;;;9.83;;
3217;SDS011;1621;49.702;8.618;2023-04-06T09:18:45;15.00;;;10.50;;
3217;SDS011;1621;49.702;8.618;2023-04-06T09:21:11;11.87;;;9.13;;
3217;SDS011;1621;49.702;8.618;2023-04-06T09:23:38;10.47;;;9.30;;
3217;SDS011;1621;49.702;8.618;2023-04-06T09:26:10;13.37;;;9.50;;
3217;SDS011;1621;49.702;8.618;2023-04-06T09:28:43;12.27;;;9.97;;
3217;SDS011;1621;49.702;8.618;2023-04-06T09:31:10;15.50;;;10.73;;
3217;SDS011;1621;49.702;8.618;2023-04-06T09:33:37;13.60;;;10.00;;
3217;SDS011;1621;49.702;8.618;2023-04-06T09:36:04;12.83;;;10.03;;
3217;SDS011;1621;49.702;8.618;2023-04-06T09:38:30;13.93;;;10.60;;
3217;SDS011;1621;49.702;8.618;2023-04-06T09:40:56;15.37;;;10.13;;
3217;SDS011;1621;49.702;8.618;2023-04-06T09:43:24;13.03;;;10.10;;
3217;SDS011;1621;49.702;8.618;2023-04-06T09:45:51;12.87;;;10.20;;
3217;SDS011;1621;49.702;8.618;2023-04-06T09:48:18;14.77;;;10.43;;
3217;SDS011;1621;49.702;8.618;2023-04-06T09:50:46;13.60;;;10.07;;
3217;SDS011;1621;49.702;8.618;2023-04-06T09:53:12;14.83;;;9.40;;
3217;SDS011;1621;49.702;8.618;2023-04-06T09:55:40;15.27;;;10.27;;
3217;SDS011;1621;49.702;8.618;2023-04-06T09:58:09;12.67;;;9.37;;
3217;SDS011;1621;49.702;8.618;2023-04-06T10:00:42;11.33;;;9.50;;
3217;SDS011;1621;49.702;8.618;2023-04-06T10:03:12;11.77;;;9.07;;
3217;SDS011;1621;49.702;8.618;2023-04-06T10:05:42;13.10;;;9.93;;
3217;SDS011;1621;49.702;8.618;2023-04-06T10:08:10;14.67;;;10.10;;
3217;SDS011;1621;49.702;8.618;2023-04-06T10:10:36;13.30;;;9.73;;
3217;SDS011;1621;49.702;8.618;2023-04-06T10:13:03;13.27;;;9.93;;
3217;SDS011;1621;49.702;8.618;2023-04-06T10:15:30;11.43;;;8.60;;
3217;SDS011;1621;49.702;8.618;2023-04-06T10:17:58;13.73;;;9.30;;
3217;SDS011;1621;49.702;8.618;2023-04-06T10:20:26;14.17;;;9.90;;
3217;SDS011;1621;49.702;8.618;2023-04-06T10:22:55;13.60;;;9.40;;
3217;SDS011;1621;49.702;8.618;2023-04-06T10:25:28;13.03;;;8.90;;
3217;SDS011;1621;49.702;8.618;2023-04-06T10:27:58;12.90;;;9.03;;
3217;SDS011;1621;49.702;8.618;2023-04-06T10:30:25;11.30;;;9.50;;
3217;SDS011;1621;49.702;8.618;2023-04-06T10:32:51;9.97;;;7.97;;
3217;SDS011;1621;49.702;8.618;2023-04-06T10:35:19;15.47;;;8.97;;
3217;SDS011;1621;49.702;8.618;2023-04-06T10:37:46;13.20;;;8.53;;
3217;SDS011;1621;49.702;8.618;2023-04-06T10:40:17;11.90;;;8.60;;
3217;SDS011;1621;49.702;8.618;2023-04-06T10:42:44;12.17;;;9.13;;
3217;SDS011;1621;49.702;8.618;2023-04-06T10:45:18;11.00;;;8.40;;
3217;SDS011;1621;49.702;8.618;2023-04-06T10:47:44;12.03;;;8.77;;
3217;SDS011;1621;49.702;8.618;2023-04-06T10:50:11;13.60;;;8.90;;
3217;SDS011;1621;49.702;8.618;2023-04-06T10:52:41;10.63;;;7.87;;
3217;SDS011;1621;49.702;8.618;2023-04-06T10:55:08;11.90;;;8.63;;
3217;SDS011;1621;49.702;8.618;2023-04-06T10:57:34;15.20;;;9.60;;
3217;SDS011;1621;49.702;8.618;2023-04-06T11:00:02;16.40;;;9.07;;
3217;SDS011;1621;49.702;8.618;2023-04-06T11:02:29;12.37;;;8.33;;
3217;SDS011;1621;49.702;8.618;2023-04-06T11:04:55;12.93;;;8.53;;
3217;SDS011;1621;49.702;8.618;2023-04-06T11:07:23;11.37;;;8.63;;
3217;SDS011;1621;49.702;8.618;2023-04-06T11:09:50;10.90;;;8.47;;
3217;SDS011;1621;49.702;8.618;2023-04-06T11:12:20;14.10;;;9.13;;
3217;SDS011;1621;49.702;8.618;2023-04-06T11:14:52;8.93;;;6.93;;
3217;SDS011;1621;49.702;8.618;2023-04-06T11:17:24;11.37;;;8.20;;
3217;SDS011;1621;49.702;8.618;2023-04-06T11:19:51;11.17;;;8.27;;
3217;SDS011;1621;49.702;8.618;2023-04-06T11:22:17;13.30;;;8.10;;
3217;SDS011;1621;49.702;8.618;2023-04-06T11:24:43;11.30;;;8.13;;
3217;SDS011;1621;49.702;8.618;2023-04-06T11:27:11;10.63;;;6.97;;
3217;SDS011;1621;49.702;8.618;2023-04-06T11:29:40;12.27;;;8.33;;
3217;SDS011;1621;49.702;8.618;2023-04-06T11:32:06;11.37;;;7.83;;
3217;SDS011;1621;49.702;8.618;2023-04-06T11:34:34;10.27;;;7.73;;
3217;SDS011;1621;49.702;8.618;2023-04-06T11:37:02;12.70;;;7.93;;
3217;SDS011;1621;49.702;8.618;2023-04-06T11:39:30;12.23;;;7.60;;
3217;SDS011;1621;49.702;8.618;2023-04-06T11:41:57;11.10;;;7.57;;
3217;SDS011;1621;49.702;8.618;2023-04-06T11:44:30;9.53;;;7.10;;
3217;SDS011;1621;49.702;8.618;2023-04-06T11:46:57;13.63;;;6.90;;
3217;SDS011;1621;49.702;8.618;2023-04-06T11:49:26;8.23;;;6.50;;
3217;SDS011;1621;49.702;8.618;2023-04-06T11:51:52;8.67;;;6.87;;
3217;SDS011;1621;49.702;8.618;2023-04-06T11:54:28;8.57;;;6.30;;
3217;SDS011;1621;49.702;8.618;2023-04-06T11:56:55;9.93;;;6.83;;
3217;SDS011;1621;49.702;8.618;2023-04-06T11:59:21;10.10;;;6.33;;
3217;SDS011;1621;49.702;8.618;2023-04-06T12:01:49;7.60;;;5.63;;
3217;SDS011;1621;49.702;8.618;2023-04-06T12:04:17;9.03;;;6.13;;
3217;SDS011;1621;49.702;8.618;2023-04-06T12:06:43;7.13;;;5.80;;
3217;SDS011;1621;49.702;8.618;2023-04-06T12:09:09;8.00;;;6.10;;
3217;SDS011;1621;49.702;8.618;2023-04-06T12:11:36;7.77;;;6.10;;
3217;SDS011;1621;49.702;8.618;2023-04-06T12:14:02;9.00;;;5.70;;
3217;SDS011;1621;49.702;8.618;2023-04-06T12:16:29;8.33;;;6.20;;
3217;SDS011;1621;49.702;8.618;2023-04-06T12:18:57;9.07;;;6.43;;
3217;SDS011;1621;49.702;8.618;2023-04-06T12:21:23;9.40;;;5.97;;
3217;SDS011;1621;49.702;8.618;2023-04-06T12:23:50;6.20;;;5.27;;
3217;SDS011;1621;49.702;8.618;2023-04-06T12:26:16;9.73;;;6.73;;
3217;SDS011;1621;49.702;8.618;2023-04-06T12:28:42;11.00;;;7.33;;
3217;SDS011;1621;49.702;8.618;2023-04-06T12:31:14;7.13;;;5.70;;
3217;SDS011;1621;49.702;8.618;2023-04-06T12:33:40;9.70;;;6.50;;
3217;SDS011;1621;49.702;8.618;2023-04-06T12:36:12;8.93;;;6.57;;
3217;SDS011;1621;49.702;8.618;2023-04-06T12:38:38;8.87;;;6.60;;
3217;SDS011;1621;49.702;8.618;2023-04-06T12:41:06;9.53;;;7.40;;
3217;SDS011;1621;49.702;8.618;2023-04-06T12:43:32;11.33;;;6.30;;
3217;SDS011;1621;49.702;8.618;2023-04-06T12:45:58;7.80;;;6.03;;
3217;SDS011;1621;49.702;8.618;2023-04-06T12:48:25;8.13;;;6.10;;
3217;SDS011;1621;49.702;8.618;2023-04-06T12:50:55;9.70;;;6.27;;
3217;SDS011;1621;49.702;8.618;2023-04-06T12:53:23;8.93;;;6.60;;
3217;SDS011;1621;49.702;8.618;2023-04-06T12:55:49;9.67;;;7.40;;
3217;SDS011;1621;49.702;8.618;2023-04-06T12:58:16;8.73;;;6.53;;
3217;SDS011;1621;49.702;8.618;2023-04-06T13:00:43;8.53;;;7.00;;
3217;SDS011;1621;49.702;8.618;2023-04-06T13:03:09;10.63;;;7.97;;
3217;SDS011;1621;49.702;8.618;2023-04-06T13:05:35;10.27;;;6.83;;
3217;SDS011;1621;49.702;8.618;2023-04-06T13:08:01;9.50;;;6.57;;
3217;SDS011;1621;49.702;8.618;2023-04-06T13:10:29;9.23;;;7.10;;
3217;SDS011;1621;49.702;8.618;2023-04-06T13:12:55;8.73;;;7.17;;
3217;SDS011;1621;49.702;8.618;2023-04-06T13:15:22;9.77;;;7.60;;
3217;SDS011;1621;49.702;8.618;2023-04-06T13:17:48;11.43;;;7.70;;
3217;SDS011;1621;49.702;8.618;2023-04-06T13:20:14;11.47;;;7.17;;
3217;SDS011;1621;49.702;8.618;2023-04-06T13:22:41;10.80;;;7.60;;
3217;SDS011;1621;49.702;8.618;2023-04-06T13:25:07;9.23;;;7.20;;
3217;SDS011;1621;49.702;8.618;2023-04-06T13:27:35;8.30;;;6.33;;
3217;SDS011;1621;49.702;8.618;2023-04-06T13:30:01;10.70;;;7.20;;
3217;SDS011;1621;49.702;8.618;2023-04-06T13:32:28;9.30;;;8.00;;
3217;SDS011;1621;49.702;8.618;2023-04-06T13:34:55;11.40;;;7.80;;
3217;SDS011;1621;49.702;8.618;2023-04-06T13:37:21;9.60;;;7.33;;
3217;SDS011;1621;49.702;8.618;2023-04-06T13:39:47;9.43;;;7.00;;
3217;SDS011;1621;49.702;8.618;2023-04-06T13:42:14;10.00;;;7.77;;
3217;SDS011;1621;49.702;8.618;2023-04-06T13:44:41;9.00;;;7.00;;
3217;SDS011;1621;49.702;8.618;2023-04-06T13:47:08;9.83;;;7.43;;
3217;SDS011;1621;49.702;8.618;2023-04-06T13:49:34;10.73;;;7.70;;
3217;SDS011;1621;49.702;8.618;2023-04-06T13:52:01;8.03;;;6.70;;
3217;SDS011;1621;49.702;8.618;2023-04-06T13:54:27;8.23;;;6.70;;
3217;SDS011;1621;49.702;8.618;2023-04-06T13:56:54;9.47;;;7.33;;
3217;SDS011;1621;49.702;8.618;2023-04-06T13:59:21;11.27;;;8.23;;
3217;SDS011;1621;49.702;8.618;2023-04-06T14:01:49;12.27;;;7.87;;
3217;SDS011;1621;49.702;8.618;2023-04-06T14:04:15;10.90;;;7.77;;
3217;SDS011;1621;49.702;8.618;2023-04-06T14:06:42;10.30;;;7.90;;
3217;SDS011;1621;49.702;8.618;2023-04-06T14:09:10;12.80;;;6.80;;
3217;SDS011;1621;49.702;8.618;2023-04-06T14:11:36;11.10;;;8.20;;
3217;SDS011;1621;49.702;8.618;2023-04-06T14:14:03;13.60;;;8.00;;
3217;SDS011;1621;49.702;8.618;2023-04-06T14:16:29;15.20;;;8.40;;
3217;SDS011;1621;49.702;8.618;2023-04-06T14:18:57;11.43;;;7.20;;
3217;SDS011;1621;49.702;8.618;2023-04-06T14:21:24;10.87;;;6.90;;
3217;SDS011;1621;49.702;8.618;2023-04-06T14:23:51;9.50;;;7.23;;
3217;SDS011;1621;49.702;8.618;2023-04-06T14:26:17;10.50;;;7.80;;
3217;SDS011;1621;49.702;8.618;2023-04-06T14:28:44;11.17;;;7.00;;
3217;SDS011;1621;49.702;8.618;2023-04-06T14:31:11;10.20;;;6.80;;
3217;SDS011;1621;49.702;8.618;2023-04-06T14:33:38;16.13;;;8.50;;
3217;SDS011;1621;49.702;8.618;2023-04-06T14:36:06;10.67;;;7.50;;
3217;SDS011;1621;49.702;8.618;2023-04-06T14:38:33;9.53;;;7.07;;
3217;SDS011;1621;49.702;8.618;2023-04-06T14:40:59;13.27;;;7.60;;
3217;SDS011;1621;49.702;8.618;2023-04-06T14:43:26;15.60;;;7.80;;
3217;SDS011;1621;49.702;8.618;2023-04-06T14:45:52;9.30;;;6.97;;
3217;SDS011;1621;49.702;8.618;2023-04-06T14:48:18;10.03;;;7.57;;
3217;SDS011;1621;49.702;8.618;2023-04-06T14:50:51;11.03;;;7.53;;
3217;SDS011;1621;49.702;8.618;2023-04-06T14:53:19;10.80;;;7.73;;
3217;SDS011;1621;49.702;8.618;2023-04-06T14:55:46;9.90;;;6.97;;
3217;SDS011;1621;49.702;8.618;2023-04-06T14:58:12;12.10;;;7.37;;
3217;SDS011;1621;49.702;8.618;2023-04-06T15:00:38;10.63;;;7.10;;
3217;SDS011;1621;49.702;8.618;2023-04-06T15:03:05;8.83;;;6.07;;
3217;SDS011;1621;49.702;8.618;2023-04-06T15:05:33;10.00;;;6.70;;